Terminal Aerodrome Forecast
Issued by NWS

Current Version | Previous Version | Text Only | Print | Product List | Glossary On
Versions: 1 2 3 4 5 6 7 8 9 10 11 12 13 14 15 16 17 18 19
000 FTUS41 KBTV 242331 TAFMPV TAF KMPV 242331Z 2500/2524 VRB03KT P6SM SCT080 SCT250 FM251200 14009G19KT P6SM SCT070 BKN200 FM251700 13013G24KT P6SM VCSH SCT025 OVC040 FM252000 13009G15KT 5SM -RA BR SCT015 OVC025=

USA.gov is the U.S. government's official web portal to all federal, state and local government web resources and services.